Aeroporto :
LOGIN :

Iscrizione | Disclaimer

   EN    FR    IT 

 










Sommario :    VFR   VFR Marginale   IFR   IFR Intensivo   IFR Molto Intensivo
Visibilità : 
Base nubi : 
>= 8 km
>= 3000ft
5 / 8 km
1000 / 3000 ft
1500m / 5 km
500 / 1000 ft
800 / 1500m
200 / 500 ft
< 800m
< 200 ft
Simboli :   Temporali  Nebbia  Neve Forte  Precipitazioni Forti  Vento > 20 kt
SIGMETs :   Varie  Temporali  Ghiacco  Turbolenza  Onda orograficha  Ceneri Vulcaniche






- Altitudine del aeroporto : 1234 ft
- Codice IATA : LUX


ELLX - Luxembourg Findel

ULTIMO METAR :
  • 030950Z 18010KT 0500 R24/0800N -DZ FG BKN001 01/01 Q1003 NOSIG

METARs OBSOLETI :
  • 030920Z 17011KT 0300 R24/0700N -DZ FG BKN000 01/01 Q1003 NOSIG
  • 030850Z 17010KT 0200 R24/0650N FG -DZ BKN000 01/01 Q1004 NOSIG
  • 030820Z 18009KT 140V210 0150 R24/0700N FG BKN000 01/01 Q1004 NOSIG
  • 030750Z 18009KT 0100 R24/0600N FG BKN000 01/01 Q1004 NOSIG
  • 030720Z 17011KT 0100 R24/0400N FG BKN000 01/01 Q1005 NOSIG

TAF TAF ELLX
Valido dal 03 a 06 ore il 04 a 12 ore UTC


030500Z 0306/0412 18006KT 3000 BR BKN006
TEMPO 0306/0310 0200 -SNRA FG BKN001
PROB30
TEMPO 0310/0317 5000 -DZ BKN010
TEMPO 0319/0403 1200 RADZ BKN003
TEMPO 0403/0412 16020G30KT 2000 RA BKN004
ATIS : +352 4798 27300
Met : +352 4798 27010 / 27050



MetMap, La meteo Aeronautica in un colpo d'occhio ! - Copyright ORBIFLY Dicembre 2007 - Disclaimer

ORBIFLY MET'MAP TEAM :

Programmazione e sviluppo : Alexandra Zaïnal
Concezione : Baudouin d'Aumeries
Aiuto per la programmazione : Marc-Olivier Méhu
Supporto tecnico e logistico : Manuel Goepfert
Aiuto per la traduzione : Arnaldo La Scala

Contatto : metmap@orbifly.com




FONTI E CREDITI :

   NOAA